Cleburne, Illinois
Current Conditions -  °F | °C
As of 10:52 AM on Saturday 22 Nov 2014 (Local Time) from KMDH Reporting Station
Broken Clouds Broken Clouds  
Wind Chill: 59°   Ceiling: 6000
Heat Index: 59°   Visibility: 10mi
Dew Point: 45°   Wind: 15mph
Humidity: 60%   Direction: 190°S
Pressure: 30.16"   Gusts: 25mph
Location:  37.9667°N, 89.1298°W
Report Text: KMDH 221652Z AUTO 19013G22KT 10SM FEW047 BKN060 BKN080 15/07 A3016 RMK AO2 SLP213 T01500072
Loading
Personal Weather Stations






























Interactive Weather Map New forecast layout! Learn more

10-Day Weather Forecast

Advertisements
Track Severe Weather on mobile